Time,TemperatureF,DewpointF,PressureIn,WindDirection,WindDirectionDegrees,WindSpeedMPH,WindSpeedGustMPH,Humidity,HourlyPrecipIn,Conditions,Clouds,dailyrainin,SoftwareType,DateUTC
2013-02-14 00:08:00,31.8,31.0,29.79,West,278,0.0,3.0,97,0.00,,,0.00,weatherlink.com 1.10,2013-02-14 05:08:00,
2013-02-14 00:23:00,31.8,31.0,29.79,West,264,0.0,3.0,97,0.00,,,0.00,weatherlink.com 1.10,2013-02-14 05:23:00,
2013-02-14 00:38:00,31.9,31.0,29.79,West,270,0.0,1.0,97,0.00,,,0.00,weatherlink.com 1.10,2013-02-14 05:38:00,
2013-02-14 00:53:00,31.7,31.0,29.80,West,277,1.0,4.0,97,0.00,,,0.00,weatherlink.com 1.10,2013-02-14 05:53:00,
2013-02-14 01:08:00,31.6,31.0,29.80,NNW,327,1.0,3.0,97,0.00,,,0.00,weatherlink.com 1.10,2013-02-14 06:08:00,
2013-02-14 01:24:00,31.6,31.0,29.81,SW,231,1.0,5.0,97,0.00,,,0.00,weatherlink.com 1.10,2013-02-14 06:24:00,
2013-02-14 01:39:00,31.6,31.0,29.82,West,279,2.0,4.0,97,0.00,,,0.00,weatherlink.com 1.10,2013-02-14 06:39:00,
2013-02-14 01:54:00,31.8,31.0,29.83,NW,313,1.0,3.0,97,0.00,,,0.00,weatherlink.com 1.10,2013-02-14 06:54:00,
2013-02-14 02:09:00,32.1,31.0,29.84,WNW,285,1.0,4.0,97,0.00,,,0.00,weatherlink.com 1.10,2013-02-14 07:09:00,
2013-02-14 02:24:00,32.0,31.0,29.84,West,271,3.0,3.0,97,0.00,,,0.00,weatherlink.com 1.10,2013-02-14 07:24:00,
2013-02-14 02:39:00,31.8,31.0,29.84,West,280,1.0,3.0,97,0.00,,,0.00,weatherlink.com 1.10,2013-02-14 07:39:00,
2013-02-14 02:54:00,31.7,31.0,29.85,WNW,298,1.0,4.0,97,0.00,,,0.00,weatherlink.com 1.10,2013-02-14 07:54:00,
2013-02-14 03:09:00,31.4,31.0,29.85,West,269,1.0,5.0,97,0.00,,,0.00,weatherlink.com 1.10,2013-02-14 08:09:00,
2013-02-14 03:24:00,31.2,31.0,29.86,NNW,341,1.0,4.0,97,0.00,,,0.00,weatherlink.com 1.10,2013-02-14 08:24:00,
2013-02-14 03:39:00,31.6,31.0,29.86,WSW,257,2.0,4.0,97,0.00,,,0.00,weatherlink.com 1.10,2013-02-14 08:39:00,
2013-02-14 03:54:00,31.6,31.0,29.86,NW,309,0.0,4.0,97,0.00,,,0.00,weatherlink.com 1.10,2013-02-14 08:54:00,
2013-02-14 04:09:00,31.8,31.0,29.87,SW,232,0.0,3.0,97,0.00,,,0.00,weatherlink.com 1.10,2013-02-14 09:09:00,
2013-02-14 04:24:00,32.1,31.0,29.88,West,268,0.0,3.0,97,0.00,,,0.00,weatherlink.com 1.10,2013-02-14 09:24:00,
2013-02-14 04:39:00,32.5,32.0,29.89,WSW,238,3.0,3.0,96,0.00,,,0.00,weatherlink.com 1.10,2013-02-14 09:39:00,
2013-02-14 04:54:00,32.8,31.0,29.89,West,268,0.0,3.0,94,0.00,,,0.00,weatherlink.com 1.10,2013-02-14 09:54:00,
2013-02-14 05:09:00,33.0,31.0,29.90,WSW,254,2.0,3.0,93,0.00,,,0.00,weatherlink.com 1.10,2013-02-14 10:09:00,
2013-02-14 05:24:00,32.9,31.0,29.91,WNW,289,0.0,3.0,92,0.00,,,0.00,weatherlink.com 1.10,2013-02-14 10:24:00,
2013-02-14 05:39:00,32.7,31.0,29.91,WNW,294,1.0,3.0,92,0.00,,,0.00,weatherlink.com 1.10,2013-02-14 10:39:00,
2013-02-14 05:54:00,32.5,31.0,29.92,WNW,287,0.0,3.0,92,0.00,,,0.00,weatherlink.com 1.10,2013-02-14 10:54:00,
2013-02-14 06:09:00,32.6,30.0,29.93,NW,309,1.0,4.0,91,0.00,,,0.00,weatherlink.com 1.10,2013-02-14 11:09:00,
2013-02-14 06:24:00,32.6,30.0,29.94,SW,222,2.0,4.0,91,0.00,,,0.00,weatherlink.com 1.10,2013-02-14 11:24:00,
2013-02-14 06:39:00,32.0,30.0,29.94,WSW,250,1.0,3.0,91,0.00,,,0.00,weatherlink.com 1.10,2013-02-14 11:39:00,
2013-02-14 06:54:00,31.0,29.0,29.95,WNW,298,0.0,1.0,92,0.00,,,0.00,weatherlink.com 1.10,2013-02-14 11:54:00,
2013-02-14 07:09:00,30.9,29.0,29.96,WNW,298,2.0,3.0,92,0.00,,,0.00,weatherlink.com 1.10,2013-02-14 12:09:00,
2013-02-14 07:24:00,31.1,29.0,29.97,SW,235,0.0,3.0,91,0.00,,,0.00,weatherlink.com 1.10,2013-02-14 12:24:00,
2013-02-14 07:39:00,31.2,29.0,29.98,NW,309,0.0,3.0,90,0.00,,,0.00,weatherlink.com 1.10,2013-02-14 12:39:00,
2013-02-14 07:54:00,31.5,28.0,29.99,West,273,0.0,3.0,88,0.00,,,0.00,weatherlink.com 1.10,2013-02-14 12:54:00,
2013-02-14 08:09:00,31.4,28.0,29.99,WNW,288,1.0,4.0,88,0.00,,,0.00,weatherlink.com 1.10,2013-02-14 13:09:00,
2013-02-14 08:25:00,31.6,29.0,30.00,NW,309,1.0,4.0,89,0.00,,,0.00,weatherlink.com 1.10,2013-02-14 13:25:00,
2013-02-14 08:40:00,31.8,29.0,30.00,WNW,286,3.0,3.0,88,0.00,,,0.00,weatherlink.com 1.10,2013-02-14 13:40:00,
2013-02-14 08:55:00,31.9,29.0,30.01,West,279,1.0,3.0,88,0.01,,,0.01,weatherlink.com 1.10,2013-02-14 13:55:00,
2013-02-14 09:10:00,32.2,29.0,30.01,NW,317,2.0,5.0,87,0.01,,,0.01,weatherlink.com 1.10,2013-02-14 14:10:00,
2013-02-14 09:25:00,32.4,29.0,30.01,West,273,2.0,6.0,87,0.01,,,0.01,weatherlink.com 1.10,2013-02-14 14:25:00,
2013-02-14 09:40:00,32.7,29.0,30.01,NNE,19,3.0,5.0,87,0.02,,,0.02,weatherlink.com 1.10,2013-02-14 14:40:00,
2013-02-14 09:55:00,33.4,30.0,30.02,West,269,5.0,6.0,87,0.03,,,0.04,weatherlink.com 1.10,2013-02-14 14:55:00,
2013-02-14 10:10:00,33.6,29.0,30.02,West,272,6.0,7.0,84,0.05,,,0.06,weatherlink.com 1.10,2013-02-14 15:10:00,
2013-02-14 10:25:00,34.0,29.0,30.02,WNW,289,4.0,9.0,82,0.07,,,0.08,weatherlink.com 1.10,2013-02-14 15:25:00,
2013-02-14 10:40:00,34.3,29.0,30.03,NW,311,3.0,8.0,81,0.07,,,0.09,weatherlink.com 1.10,2013-02-14 15:40:00,
2013-02-14 11:10:00,35.1,29.0,30.03,NW,315,3.0,8.0,79,0.04,,,0.10,weatherlink.com 1.10,2013-02-14 16:10:00,
2013-02-14 11:25:00,34.6,29.0,30.03,NNW,329,1.0,7.0,79,0.03,,,0.11,weatherlink.com 1.10,2013-02-14 16:25:00,
2013-02-14 11:40:00,35.9,30.0,30.02,West,271,3.0,4.0,79,0.03,,,0.12,weatherlink.com 1.10,2013-02-14 16:40:00,
2013-02-14 11:55:00,36.2,30.0,30.02,NNE,14,4.0,7.0,77,0.02,,,0.12,weatherlink.com 1.10,2013-02-14 16:55:00,
2013-02-14 12:10:00,36.6,30.0,30.02,West,261,3.0,6.0,76,0.02,,,0.12,weatherlink.com 1.10,2013-02-14 17:10:00,
2013-02-14 12:25:00,36.6,29.0,30.02,West,276,6.0,8.0,75,0.01,,,0.12,weatherlink.com 1.10,2013-02-14 17:25:00,
2013-02-14 12:40:00,37.7,29.0,30.02,SW,226,5.0,7.0,71,0.00,,,0.12,weatherlink.com 1.10,2013-02-14 17:40:00,
2013-02-14 12:55:00,37.4,29.0,30.01,NW,317,4.0,8.0,71,0.00,,,0.12,weatherlink.com 1.10,2013-02-14 17:55:00,
2013-02-14 13:10:00,39.0,29.0,30.01,WSW,254,2.0,4.0,67,0.00,,,0.12,weatherlink.com 1.10,2013-02-14 18:10:00,
2013-02-14 13:25:00,39.1,29.0,30.02,SSW,209,2.0,7.0,67,0.00,,,0.12,weatherlink.com 1.10,2013-02-14 18:25:00,
2013-02-14 13:40:00,41.2,31.0,30.00,North,360,1.0,3.0,66,0.00,,,0.12,weatherlink.com 1.10,2013-02-14 18:40:00,
2013-02-14 13:55:00,41.4,30.0,30.00,NNW,332,3.0,7.0,64,0.00,,,0.12,weatherlink.com 1.10,2013-02-14 18:55:00,
2013-02-14 14:10:00,41.0,30.0,29.99,NNE,14,1.0,5.0,64,0.00,,,0.12,weatherlink.com 1.10,2013-02-14 19:10:00,
2013-02-14 14:25:00,41.6,28.0,30.00,NNE,23,0.0,4.0,60,0.00,,,0.12,weatherlink.com 1.10,2013-02-14 19:25:00,
2013-02-14 14:40:00,42.7,28.0,29.99,West,270,1.0,3.0,57,0.00,,,0.12,weatherlink.com 1.10,2013-02-14 19:40:00,
2013-02-14 14:55:00,44.7,31.0,29.99,East,79,0.0,2.0,58,0.00,,,0.12,weatherlink.com 1.10,2013-02-14 19:55:00,
2013-02-14 15:10:00,44.6,30.0,29.98,SW,226,0.0,5.0,56,0.00,,,0.12,weatherlink.com 1.10,2013-02-14 20:10:00,
2013-02-14 15:25:00,45.2,29.0,29.99,SW,229,5.0,7.0,53,0.00,,,0.12,weatherlink.com 1.10,2013-02-14 20:25:00,
2013-02-14 15:40:00,45.1,30.0,29.99,South,176,0.0,5.0,55,0.00,,,0.12,weatherlink.com 1.10,2013-02-14 20:40:00,
2013-02-14 15:56:00,45.2,30.0,29.99,East,100,0.0,5.0,56,0.00,,,0.12,weatherlink.com 1.10,2013-02-14 20:56:00,
2013-02-14 16:11:00,45.2,30.0,30.00,South,180,0.0,7.0,55,0.00,,,0.12,weatherlink.com 1.10,2013-02-14 21:11:00,
2013-02-14 16:26:00,43.7,29.0,30.00,WSW,250,0.0,4.0,56,0.00,,,0.12,weatherlink.com 1.10,2013-02-14 21:26:00,
2013-02-14 16:41:00,43.4,28.0,30.00,SW,225,2.0,4.0,56,0.00,,,0.12,weatherlink.com 1.10,2013-02-14 21:41:00,
2013-02-14 16:56:00,43.0,28.0,30.00,SW,223,0.0,4.0,56,0.00,,,0.12,weatherlink.com 1.10,2013-02-14 21:56:00,
2013-02-14 17:11:00,42.1,28.0,30.00,West,262,0.0,2.0,58,0.00,,,0.12,weatherlink.com 1.10,2013-02-14 22:11:00,
2013-02-14 17:26:00,41.6,28.0,30.00,West,262,0.0,0.0,59,0.00,,,0.12,weatherlink.com 1.10,2013-02-14 22:26:00,
2013-02-14 17:41:00,40.1,28.0,30.00,West,262,0.0,0.0,63,0.00,,,0.12,weatherlink.com 1.10,2013-02-14 22:41:00,
2013-02-14 18:11:00,37.4,29.0,30.01,West,262,0.0,0.0,71,0.00,,,0.12,weatherlink.com 1.10,2013-02-14 23:11:00,
2013-02-14 18:26:00,36.9,28.0,30.01,West,262,0.0,0.0,71,0.00,,,0.12,weatherlink.com 1.10,2013-02-14 23:26:00,
2013-02-14 18:41:00,36.6,28.0,30.01,West,262,0.0,0.0,72,0.00,,,0.12,weatherlink.com 1.10,2013-02-14 23:41:00,
2013-02-14 18:56:00,36.4,29.0,30.01,West,262,0.0,0.0,73,0.00,,,0.12,weatherlink.com 1.10,2013-02-14 23:56:00,
2013-02-14 19:11:00,36.4,29.0,30.01,West,262,0.0,0.0,73,0.00,,,0.12,weatherlink.com 1.10,2013-02-15 00:11:00,
2013-02-14 19:26:00,35.6,28.0,30.02,West,262,0.0,0.0,74,0.00,,,0.12,weatherlink.com 1.10,2013-02-15 00:26:00,
2013-02-14 19:41:00,35.3,28.0,30.02,South,172,0.0,0.0,74,0.00,,,0.12,weatherlink.com 1.10,2013-02-15 00:41:00,
2013-02-14 19:56:00,35.1,28.0,30.02,South,180,0.0,1.0,74,0.00,,,0.12,weatherlink.com 1.10,2013-02-15 00:56:00,
2013-02-14 20:11:00,35.1,27.0,30.03,SSW,204,0.0,1.0,73,0.00,,,0.12,weatherlink.com 1.10,2013-02-15 01:11:00,
2013-02-14 20:26:00,35.0,27.0,30.03,SSW,204,0.0,0.0,73,0.00,,,0.12,weatherlink.com 1.10,2013-02-15 01:26:00,
2013-02-14 20:41:00,34.6,27.0,30.03,SSW,202,0.0,0.0,75,0.00,,,0.12,weatherlink.com 1.10,2013-02-15 01:41:00,
2013-02-14 20:56:00,34.6,27.0,30.02,SSW,202,0.0,0.0,75,0.00,,,0.12,weatherlink.com 1.10,2013-02-15 01:56:00,
2013-02-14 21:11:00,34.6,27.0,30.03,South,183,0.0,2.0,75,0.00,,,0.12,weatherlink.com 1.10,2013-02-15 02:11:00,
2013-02-14 21:26:00,33.9,27.0,30.03,South,183,0.0,0.0,76,0.00,,,0.12,weatherlink.com 1.10,2013-02-15 02:26:00,
2013-02-14 21:41:00,33.3,27.0,30.02,South,183,0.0,0.0,77,0.00,,,0.12,weatherlink.com 1.10,2013-02-15 02:41:00,
2013-02-14 21:56:00,32.9,27.0,30.02,South,183,0.0,0.0,78,0.00,,,0.12,weatherlink.com 1.10,2013-02-15 02:56:00,
2013-02-14 22:11:00,32.7,27.0,30.02,South,183,0.0,0.0,78,0.00,,,0.12,weatherlink.com 1.10,2013-02-15 03:11:00,
2013-02-14 22:26:00,32.4,27.0,30.02,South,183,0.0,0.0,79,0.00,,,0.12,weatherlink.com 1.10,2013-02-15 03:26:00,
2013-02-14 22:41:00,32.1,26.0,30.02,South,183,0.0,0.0,79,0.00,,,0.12,weatherlink.com 1.10,2013-02-15 03:41:00,
2013-02-14 22:56:00,32.0,27.0,30.02,South,183,0.0,0.0,80,0.00,,,0.12,weatherlink.com 1.10,2013-02-15 03:56:00,
2013-02-14 23:11:00,32.5,27.0,30.01,South,183,0.0,0.0,80,0.00,,,0.12,weatherlink.com 1.10,2013-02-15 04:11:00,
2013-02-14 23:26:00,33.8,28.0,30.01,South,183,0.0,0.0,79,0.00,,,0.12,weatherlink.com 1.10,2013-02-15 04:26:00,
2013-02-14 23:41:00,34.9,28.0,30.01,South,186,0.0,2.0,77,0.00,,,0.12,weatherlink.com 1.10,2013-02-15 04:41:00,
2013-02-14 23:56:00,34.7,28.0,30.01,South,186,2.0,3.0,77,0.00,,,0.12,weatherlink.com 1.10,2013-02-15 04:56:00,